KIAB/IAB METAR and TAF weather

Enter ICAO airport designator
Station Type Date Time Source
KIAB METAR 2020/01/21 08:56 UTC NOAA

KIAB 210856Z AUTO 10003KT 10SM CLR M09/M13 A3056 RMK AO2 SLP369 T10911126 50005 $


Station Type Date Time Source
KIAB Decoded METAR 2020/01/21 08:56 UTC NOAA

McConnell Air Force Base, KS, United States (KIAB) 37-37N 097-16W
Jan 21, 2020 - 03:56 AM EST / 2020.01.21 0856 UTC
Wind: from the E (100 degrees) at 3 MPH (3 KT):0
Visibility: 10 mile(s):0
Sky conditions: clear
Temperature: 15.6 F (-9.1 C)
Dew Point: 9.3 F (-12.6 C)
Relative Humidity: 75%
Pressure (altimeter): 30.56 in. Hg (1034 hPa)
Pressure tendency: 0.01 inches (0.5 hPa) higher than three hours ago
ob: KIAB 210856Z AUTO 10003KT 10SM CLR M09/M13 A3056 RMK AO2 SLP369 T10911126 50005
cycle: 9

Station Type Date Time Source
KIAB TAF 2020/01/21 02:03 UTC NOAA

TAF TAF KIAB 210200Z 2102/2208 VRB06KT 9999 SKC QNH3039INS
BECMG 2117/2118 15012G18KT 9999 BKN200 QNH3022INS
BECMG 2123/2124 16012KT 9999 BKN150 QNH3018INS
BECMG 2202/2203 16010G15KT 8000 -SHRA BKN035 OVC060 650409 540052 QNH3012INS
BECMG 2204/2205 17010G15KT 6000 -SN OVC002 650505 550054 QNH3005INS TX03/2120Z TNM09/2112Z

Example: see airport list